sensor_id;sensor_type;location;lat;lon;timestamp;temperature;humidity
31542;DHT22;18152;49.986;8.646;2022-08-19T00:00:02;19.50;99.90
31542;DHT22;18152;49.986;8.646;2022-08-19T00:02:28;19.50;99.90
31542;DHT22;18152;49.986;8.646;2022-08-19T00:04:53;19.50;99.90
31542;DHT22;18152;49.986;8.646;2022-08-19T00:07:20;19.50;99.90
31542;DHT22;18152;49.986;8.646;2022-08-19T00:09:45;19.50;99.90
31542;DHT22;18152;49.986;8.646;2022-08-19T00:12:11;19.50;99.90
31542;DHT22;18152;49.986;8.646;2022-08-19T00:14:37;19.50;99.90
31542;DHT22;18152;49.986;8.646;2022-08-19T00:17:04;19.40;99.90
31542;DHT22;18152;49.986;8.646;2022-08-19T00:19:30;19.40;99.90
31542;DHT22;18152;49.986;8.646;2022-08-19T00:21:56;19.40;99.90
31542;DHT22;18152;49.986;8.646;2022-08-19T00:24:22;19.40;99.90
31542;DHT22;18152;49.986;8.646;2022-08-19T00:26:48;19.40;99.90
31542;DHT22;18152;49.986;8.646;2022-08-19T00:29:16;19.50;99.90
31542;DHT22;18152;49.986;8.646;2022-08-19T00:31:42;19.40;99.90
31542;DHT22;18152;49.986;8.646;2022-08-19T00:34:08;19.40;99.90
31542;DHT22;18152;49.986;8.646;2022-08-19T00:36:34;19.40;99.90
31542;DHT22;18152;49.986;8.646;2022-08-19T00:39:00;19.40;99.90
31542;DHT22;18152;49.986;8.646;2022-08-19T00:41:27;19.40;99.90
31542;DHT22;18152;49.986;8.646;2022-08-19T00:44:06;19.30;99.90
31542;DHT22;18152;49.986;8.646;2022-08-19T00:46:33;19.30;99.90
31542;DHT22;18152;49.986;8.646;2022-08-19T00:49:06;19.30;99.90
31542;DHT22;18152;49.986;8.646;2022-08-19T00:51:32;19.30;99.90
31542;DHT22;18152;49.986;8.646;2022-08-19T00:53:59;19.30;99.90
31542;DHT22;18152;49.986;8.646;2022-08-19T00:56:26;19.30;99.90
31542;DHT22;18152;49.986;8.646;2022-08-19T00:58:55;19.30;99.90
31542;DHT22;18152;49.986;8.646;2022-08-19T01:01:21;19.30;99.90
31542;DHT22;18152;49.986;8.646;2022-08-19T01:03:47;19.30;99.90
31542;DHT22;18152;49.986;8.646;2022-08-19T01:06:13;19.30;99.90
31542;DHT22;18152;49.986;8.646;2022-08-19T01:08:39;19.30;99.90
31542;DHT22;18152;49.986;8.646;2022-08-19T01:11:05;19.30;99.90
31542;DHT22;18152;49.986;8.646;2022-08-19T01:13:33;19.30;99.90
31542;DHT22;18152;49.986;8.646;2022-08-19T01:16:09;19.30;99.90
31542;DHT22;18152;49.986;8.646;2022-08-19T01:18:40;19.40;99.90
31542;DHT22;18152;49.986;8.646;2022-08-19T01:21:12;19.40;99.90
31542;DHT22;18152;49.986;8.646;2022-08-19T01:23:40;19.40;99.90
31542;DHT22;18152;49.986;8.646;2022-08-19T01:26:15;19.40;99.90
31542;DHT22;18152;49.986;8.646;2022-08-19T01:28:42;19.30;99.90
31542;DHT22;18152;49.986;8.646;2022-08-19T01:31:10;19.30;99.90
31542;DHT22;18152;49.986;8.646;2022-08-19T01:33:37;19.30;99.90
31542;DHT22;18152;49.986;8.646;2022-08-19T01:36:09;19.30;99.90
31542;DHT22;18152;49.986;8.646;2022-08-19T01:38:38;19.30;99.90
31542;DHT22;18152;49.986;8.646;2022-08-19T01:41:04;19.30;99.90
31542;DHT22;18152;49.986;8.646;2022-08-19T01:43:29;19.40;99.90
31542;DHT22;18152;49.986;8.646;2022-08-19T01:45:55;19.30;99.90
31542;DHT22;18152;49.986;8.646;2022-08-19T01:48:20;19.30;99.90
31542;DHT22;18152;49.986;8.646;2022-08-19T01:50:47;19.30;99.90
31542;DHT22;18152;49.986;8.646;2022-08-19T01:53:13;19.30;99.90
31542;DHT22;18152;49.986;8.646;2022-08-19T01:55:40;19.30;99.90
31542;DHT22;18152;49.986;8.646;2022-08-19T01:58:13;19.30;99.90
31542;DHT22;18152;49.986;8.646;2022-08-19T02:00:40;19.30;99.90
31542;DHT22;18152;49.986;8.646;2022-08-19T02:03:06;19.30;99.90
31542;DHT22;18152;49.986;8.646;2022-08-19T02:05:32;19.30;99.90
31542;DHT22;18152;49.986;8.646;2022-08-19T02:07:58;19.20;99.90
31542;DHT22;18152;49.986;8.646;2022-08-19T02:10:24;19.30;99.90
31542;DHT22;18152;49.986;8.646;2022-08-19T02:12:50;19.30;99.90
31542;DHT22;18152;49.986;8.646;2022-08-19T02:15:17;19.20;99.90
31542;DHT22;18152;49.986;8.646;2022-08-19T02:17:44;19.30;99.90
31542;DHT22;18152;49.986;8.646;2022-08-19T02:20:11;19.30;99.90
31542;DHT22;18152;49.986;8.646;2022-08-19T02:22:37;19.30;99.90
31542;DHT22;18152;49.986;8.646;2022-08-19T02:25:06;19.30;99.90
31542;DHT22;18152;49.986;8.646;2022-08-19T02:27:31;19.30;99.90
31542;DHT22;18152;49.986;8.646;2022-08-19T02:29:58;19.30;99.90
31542;DHT22;18152;49.986;8.646;2022-08-19T02:32:24;19.30;99.90
31542;DHT22;18152;49.986;8.646;2022-08-19T02:34:50;19.30;99.90
31542;DHT22;18152;49.986;8.646;2022-08-19T02:37:16;19.20;99.90
31542;DHT22;18152;49.986;8.646;2022-08-19T02:40:00;19.30;99.90
31542;DHT22;18152;49.986;8.646;2022-08-19T02:42:26;19.30;99.90
31542;DHT22;18152;49.986;8.646;2022-08-19T02:44:52;19.30;99.90
31542;DHT22;18152;49.986;8.646;2022-08-19T02:47:20;19.30;99.90
31542;DHT22;18152;49.986;8.646;2022-08-19T02:49:46;19.30;99.90
31542;DHT22;18152;49.986;8.646;2022-08-19T02:52:14;19.30;99.90
31542;DHT22;18152;49.986;8.646;2022-08-19T02:54:39;19.30;99.90
31542;DHT22;18152;49.986;8.646;2022-08-19T02:57:05;19.30;99.90
31542;DHT22;18152;49.986;8.646;2022-08-19T02:59:32;19.30;99.90
31542;DHT22;18152;49.986;8.646;2022-08-19T03:01:58;19.30;99.90
31542;DHT22;18152;49.986;8.646;2022-08-19T03:04:23;19.30;99.90
31542;DHT22;18152;49.986;8.646;2022-08-19T03:06:50;19.30;99.90
31542;DHT22;18152;49.986;8.646;2022-08-19T03:09:17;19.30;99.90
31542;DHT22;18152;49.986;8.646;2022-08-19T03:11:44;19.30;99.90
31542;DHT22;18152;49.986;8.646;2022-08-19T03:14:10;19.30;99.90
31542;DHT22;18152;49.986;8.646;2022-08-19T03:16:47;19.30;99.90
31542;DHT22;18152;49.986;8.646;2022-08-19T03:19:16;19.20;99.90
31542;DHT22;18152;49.986;8.646;2022-08-19T03:21:43;19.20;99.90
31542;DHT22;18152;49.986;8.646;2022-08-19T03:24:10;19.20;99.90
31542;DHT22;18152;49.986;8.646;2022-08-19T03:26:41;19.20;99.90
31542;DHT22;18152;49.986;8.646;2022-08-19T03:29:08;19.20;99.90
31542;DHT22;18152;49.986;8.646;2022-08-19T03:31:37;19.10;99.90
31542;DHT22;18152;49.986;8.646;2022-08-19T03:34:03;19.10;99.90
31542;DHT22;18152;49.986;8.646;2022-08-19T03:36:29;19.10;99.90
31542;DHT22;18152;49.986;8.646;2022-08-19T03:38:57;19.20;99.90
31542;DHT22;18152;49.986;8.646;2022-08-19T03:41:26;19.10;99.90
31542;DHT22;18152;49.986;8.646;2022-08-19T03:43:52;19.10;99.90
31542;DHT22;18152;49.986;8.646;2022-08-19T03:46:24;19.10;99.90
31542;DHT22;18152;49.986;8.646;2022-08-19T03:48:52;19.10;99.90
31542;DHT22;18152;49.986;8.646;2022-08-19T03:51:29;19.10;99.90
31542;DHT22;18152;49.986;8.646;2022-08-19T03:53:57;19.10;99.90
31542;DHT22;18152;49.986;8.646;2022-08-19T03:56:24;19.00;99.90
31542;DHT22;18152;49.986;8.646;2022-08-19T03:58:57;19.00;99.90
31542;DHT22;18152;49.986;8.646;2022-08-19T04:01:25;19.00;99.90
31542;DHT22;18152;49.986;8.646;2022-08-19T04:03:55;19.00;99.90
31542;DHT22;18152;49.986;8.646;2022-08-19T04:06:24;18.90;99.90
31542;DHT22;18152;49.986;8.646;2022-08-19T04:08:51;18.90;99.90
31542;DHT22;18152;49.986;8.646;2022-08-19T04:11:21;18.80;99.90
31542;DHT22;18152;49.986;8.646;2022-08-19T04:13:47;18.80;99.90
31542;DHT22;18152;49.986;8.646;2022-08-19T04:16:13;18.70;99.90
31542;DHT22;18152;49.986;8.646;2022-08-19T04:18:40;18.70;99.90
31542;DHT22;18152;49.986;8.646;2022-08-19T04:21:07;18.70;99.90
31542;DHT22;18152;49.986;8.646;2022-08-19T04:23:34;18.70;99.90
31542;DHT22;18152;49.986;8.646;2022-08-19T04:26:03;18.70;99.90
31542;DHT22;18152;49.986;8.646;2022-08-19T04:28:28;18.70;99.90
31542;DHT22;18152;49.986;8.646;2022-08-19T04:30:55;18.60;99.90
31542;DHT22;18152;49.986;8.646;2022-08-19T04:33:25;18.60;99.90
31542;DHT22;18152;49.986;8.646;2022-08-19T04:35:52;18.60;99.90
31542;DHT22;18152;49.986;8.646;2022-08-19T04:38:20;18.60;99.90
31542;DHT22;18152;49.986;8.646;2022-08-19T04:40:49;18.50;99.90
31542;DHT22;18152;49.986;8.646;2022-08-19T04:43:37;18.50;99.90
31542;DHT22;18152;49.986;8.646;2022-08-19T04:46:10;18.50;99.90
31542;DHT22;18152;49.986;8.646;2022-08-19T04:48:37;18.40;99.90
31542;DHT22;18152;49.986;8.646;2022-08-19T04:51:07;18.40;99.90
31542;DHT22;18152;49.986;8.646;2022-08-19T04:53:35;18.40;99.90
31542;DHT22;18152;49.986;8.646;2022-08-19T04:56:05;18.30;99.90
31542;DHT22;18152;49.986;8.646;2022-08-19T04:58:33;18.30;99.90
31542;DHT22;18152;49.986;8.646;2022-08-19T05:00:59;18.30;99.90
31542;DHT22;18152;49.986;8.646;2022-08-19T05:03:25;18.30;99.90
31542;DHT22;18152;49.986;8.646;2022-08-19T05:05:51;18.30;99.90
31542;DHT22;18152;49.986;8.646;2022-08-19T05:08:21;18.30;99.90
31542;DHT22;18152;49.986;8.646;2022-08-19T05:10:49;18.40;99.90
31542;DHT22;18152;49.986;8.646;2022-08-19T05:13:17;18.40;99.90
31542;DHT22;18152;49.986;8.646;2022-08-19T05:15:43;18.30;99.90
31542;DHT22;18152;49.986;8.646;2022-08-19T05:18:10;18.40;99.90
31542;DHT22;18152;49.986;8.646;2022-08-19T05:20:54;18.50;99.90
31542;DHT22;18152;49.986;8.646;2022-08-19T05:23:38;18.60;99.90
31542;DHT22;18152;49.986;8.646;2022-08-19T05:26:04;18.60;99.90
31542;DHT22;18152;49.986;8.646;2022-08-19T05:28:29;18.70;99.90
31542;DHT22;18152;49.986;8.646;2022-08-19T05:30:55;18.70;99.90
31542;DHT22;18152;49.986;8.646;2022-08-19T05:33:21;18.70;99.90
31542;DHT22;18152;49.986;8.646;2022-08-19T05:35:48;18.80;99.90
31542;DHT22;18152;49.986;8.646;2022-08-19T05:38:16;18.90;99.90
31542;DHT22;18152;49.986;8.646;2022-08-19T05:40:41;18.90;99.90
31542;DHT22;18152;49.986;8.646;2022-08-19T05:43:11;18.90;99.90
31542;DHT22;18152;49.986;8.646;2022-08-19T05:45:40;19.00;99.90
31542;DHT22;18152;49.986;8.646;2022-08-19T05:48:07;19.00;99.90
31542;DHT22;18152;49.986;8.646;2022-08-19T05:50:37;19.00;99.90
31542;DHT22;18152;49.986;8.646;2022-08-19T05:53:03;19.10;99.90
31542;DHT22;18152;49.986;8.646;2022-08-19T05:55:28;19.10;99.90
31542;DHT22;18152;49.986;8.646;2022-08-19T05:57:54;19.20;99.90
31542;DHT22;18152;49.986;8.646;2022-08-19T06:00:19;19.30;99.90
31542;DHT22;18152;49.986;8.646;2022-08-19T06:02:48;19.30;99.90
31542;DHT22;18152;49.986;8.646;2022-08-19T06:05:14;19.30;99.90
31542;DHT22;18152;49.986;8.646;2022-08-19T06:07:40;19.40;99.90
31542;DHT22;18152;49.986;8.646;2022-08-19T06:10:07;19.40;99.90
31542;DHT22;18152;49.986;8.646;2022-08-19T06:12:34;19.50;99.90
31542;DHT22;18152;49.986;8.646;2022-08-19T06:15:05;19.60;99.90
31542;DHT22;18152;49.986;8.646;2022-08-19T06:17:33;19.70;99.90
31542;DHT22;18152;49.986;8.646;2022-08-19T06:20:00;19.70;99.90
31542;DHT22;18152;49.986;8.646;2022-08-19T06:22:43;19.90;99.90
31542;DHT22;18152;49.986;8.646;2022-08-19T06:25:09;20.00;99.90
31542;DHT22;18152;49.986;8.646;2022-08-19T06:27:36;20.20;99.90
31542;DHT22;18152;49.986;8.646;2022-08-19T06:30:03;20.30;99.90
31542;DHT22;18152;49.986;8.646;2022-08-19T06:32:29;20.60;99.90
31542;DHT22;18152;49.986;8.646;2022-08-19T06:34:55;21.00;99.90
31542;DHT22;18152;49.986;8.646;2022-08-19T06:37:21;21.30;99.90
31542;DHT22;18152;49.986;8.646;2022-08-19T06:39:48;21.40;99.90
31542;DHT22;18152;49.986;8.646;2022-08-19T06:42:14;21.20;99.90
31542;DHT22;18152;49.986;8.646;2022-08-19T06:44:45;21.10;99.90
31542;DHT22;18152;49.986;8.646;2022-08-19T06:47:14;21.00;99.90
31542;DHT22;18152;49.986;8.646;2022-08-19T06:49:41;20.90;99.90
31542;DHT22;18152;49.986;8.646;2022-08-19T06:52:07;20.90;99.90
31542;DHT22;18152;49.986;8.646;2022-08-19T06:54:32;21.00;99.90
31542;DHT22;18152;49.986;8.646;2022-08-19T06:56:59;21.10;99.90
31542;DHT22;18152;49.986;8.646;2022-08-19T06:59:28;21.20;99.90
31542;DHT22;18152;49.986;8.646;2022-08-19T07:01:57;21.30;99.90
31542;DHT22;18152;49.986;8.646;2022-08-19T07:04:26;21.40;99.90
31542;DHT22;18152;49.986;8.646;2022-08-19T07:07:06;21.40;99.90
31542;DHT22;18152;49.986;8.646;2022-08-19T07:09:36;21.50;99.90
31542;DHT22;18152;49.986;8.646;2022-08-19T07:12:03;21.70;99.90
31542;DHT22;18152;49.986;8.646;2022-08-19T07:14:29;21.90;99.90
31542;DHT22;18152;49.986;8.646;2022-08-19T07:16:56;21.90;99.90
31542;DHT22;18152;49.986;8.646;2022-08-19T07:19:24;22.00;99.90
31542;DHT22;18152;49.986;8.646;2022-08-19T07:21:52;22.00;99.90
31542;DHT22;18152;49.986;8.646;2022-08-19T07:24:23;22.00;99.90
31542;DHT22;18152;49.986;8.646;2022-08-19T07:26:51;22.20;99.90
31542;DHT22;18152;49.986;8.646;2022-08-19T07:29:18;22.40;99.90
31542;DHT22;18152;49.986;8.646;2022-08-19T07:31:44;22.60;99.90
31542;DHT22;18152;49.986;8.646;2022-08-19T07:34:12;22.40;99.90
31542;DHT22;18152;49.986;8.646;2022-08-19T07:36:40;22.50;99.90
31542;DHT22;18152;49.986;8.646;2022-08-19T07:39:13;22.40;99.90
31542;DHT22;18152;49.986;8.646;2022-08-19T07:41:39;22.40;99.90
31542;DHT22;18152;49.986;8.646;2022-08-19T07:44:07;22.30;99.90
31542;DHT22;18152;49.986;8.646;2022-08-19T07:46:36;22.40;99.90
31542;DHT22;18152;49.986;8.646;2022-08-19T07:49:03;22.50;99.90
31542;DHT22;18152;49.986;8.646;2022-08-19T07:51:29;22.80;99.90
31542;DHT22;18152;49.986;8.646;2022-08-19T07:53:55;22.90;99.90
31542;DHT22;18152;49.986;8.646;2022-08-19T07:56:21;23.00;99.90
31542;DHT22;18152;49.986;8.646;2022-08-19T07:58:48;23.20;99.90
31542;DHT22;18152;49.986;8.646;2022-08-19T08:01:21;23.20;99.90
31542;DHT22;18152;49.986;8.646;2022-08-19T08:03:51;23.70;99.90
31542;DHT22;18152;49.986;8.646;2022-08-19T08:06:35;24.00;99.90
31542;DHT22;18152;49.986;8.646;2022-08-19T08:09:24;24.10;99.90
31542;DHT22;18152;49.986;8.646;2022-08-19T08:11:54;24.50;99.90
31542;DHT22;18152;49.986;8.646;2022-08-19T08:14:30;24.70;99.90
31542;DHT22;18152;49.986;8.646;2022-08-19T08:16:56;24.80;99.90
31542;DHT22;18152;49.986;8.646;2022-08-19T08:19:24;25.00;99.90
31542;DHT22;18152;49.986;8.646;2022-08-19T08:21:51;25.20;99.90
31542;DHT22;18152;49.986;8.646;2022-08-19T08:24:17;25.40;99.90
31542;DHT22;18152;49.986;8.646;2022-08-19T08:26:43;25.30;99.90
31542;DHT22;18152;49.986;8.646;2022-08-19T08:29:13;25.50;99.90
31542;DHT22;18152;49.986;8.646;2022-08-19T08:31:40;25.70;99.90
31542;DHT22;18152;49.986;8.646;2022-08-19T08:34:07;25.70;99.90
31542;DHT22;18152;49.986;8.646;2022-08-19T08:36:40;25.70;98.60
31542;DHT22;18152;49.986;8.646;2022-08-19T08:39:08;25.80;99.90
31542;DHT22;18152;49.986;8.646;2022-08-19T08:47:43;24.70;98.30
31542;DHT22;18152;49.986;8.646;2022-08-19T08:50:21;24.30;99.90
31542;DHT22;18152;49.986;8.646;2022-08-19T08:52:51;24.10;99.90
31542;DHT22;18152;49.986;8.646;2022-08-19T08:55:23;24.10;99.90
31542;DHT22;18152;49.986;8.646;2022-08-19T09:00:33;25.00;99.90
31542;DHT22;18152;49.986;8.646;2022-08-19T09:02:59;25.20;99.90
31542;DHT22;18152;49.986;8.646;2022-08-19T09:05:52;25.30;99.90
31542;DHT22;18152;49.986;8.646;2022-08-19T09:10:53;24.70;99.90
31542;DHT22;18152;49.986;8.646;2022-08-19T09:16:14;25.70;97.30
31542;DHT22;18152;49.986;8.646;2022-08-19T09:18:52;25.70;99.90
31542;DHT22;18152;49.986;8.646;2022-08-19T09:21:20;24.70;99.90
31542;DHT22;18152;49.986;8.646;2022-08-19T09:23:46;24.60;99.90
31542;DHT22;18152;49.986;8.646;2022-08-19T09:26:14;24.50;99.90
31542;DHT22;18152;49.986;8.646;2022-08-19T09:28:42;24.40;99.90
31542;DHT22;18152;49.986;8.646;2022-08-19T09:31:09;24.40;99.90
31542;DHT22;18152;49.986;8.646;2022-08-19T09:33:35;24.70;99.90
31542;DHT22;18152;49.986;8.646;2022-08-19T09:36:10;24.10;99.90
31542;DHT22;18152;49.986;8.646;2022-08-19T09:38:36;23.60;99.90
31542;DHT22;18152;49.986;8.646;2022-08-19T09:41:08;23.30;99.90
31542;DHT22;18152;49.986;8.646;2022-08-19T09:43:37;23.20;99.90
31542;DHT22;18152;49.986;8.646;2022-08-19T09:46:04;23.10;99.90
31542;DHT22;18152;49.986;8.646;2022-08-19T09:48:38;23.00;99.90
31542;DHT22;18152;49.986;8.646;2022-08-19T09:51:07;22.90;99.90
31542;DHT22;18152;49.986;8.646;2022-08-19T09:53:34;23.30;99.90
31542;DHT22;18152;49.986;8.646;2022-08-19T09:56:00;23.80;99.90
31542;DHT22;18152;49.986;8.646;2022-08-19T09:58:26;24.30;99.90
31542;DHT22;18152;49.986;8.646;2022-08-19T10:00:57;24.40;99.90
31542;DHT22;18152;49.986;8.646;2022-08-19T10:03:24;24.40;99.90
31542;DHT22;18152;49.986;8.646;2022-08-19T10:05:50;24.70;99.90
31542;DHT22;18152;49.986;8.646;2022-08-19T10:08:18;24.50;99.90
31542;DHT22;18152;49.986;8.646;2022-08-19T10:10:45;24.10;99.90
31542;DHT22;18152;49.986;8.646;2022-08-19T10:13:11;23.80;99.90
31542;DHT22;18152;49.986;8.646;2022-08-19T10:15:37;24.10;99.90
31542;DHT22;18152;49.986;8.646;2022-08-19T10:18:05;24.40;99.90
31542;DHT22;18152;49.986;8.646;2022-08-19T10:20:31;25.00;99.90
31542;DHT22;18152;49.986;8.646;2022-08-19T10:22:57;25.70;99.90
31542;DHT22;18152;49.986;8.646;2022-08-19T10:25:25;26.20;99.90
31542;DHT22;18152;49.986;8.646;2022-08-19T10:27:52;26.20;99.60
31542;DHT22;18152;49.986;8.646;2022-08-19T10:30:17;25.90;99.90
31542;DHT22;18152;49.986;8.646;2022-08-19T10:32:44;25.30;99.90
31542;DHT22;18152;49.986;8.646;2022-08-19T10:35:11;24.80;99.90
31542;DHT22;18152;49.986;8.646;2022-08-19T10:37:38;24.70;99.90
31542;DHT22;18152;49.986;8.646;2022-08-19T10:40:08;24.50;99.90
31542;DHT22;18152;49.986;8.646;2022-08-19T10:42:36;25.00;99.90
31542;DHT22;18152;49.986;8.646;2022-08-19T10:45:04;25.60;99.90
31542;DHT22;18152;49.986;8.646;2022-08-19T10:47:32;25.90;99.90
31542;DHT22;18152;49.986;8.646;2022-08-19T10:49:57;25.30;99.90
31542;DHT22;18152;49.986;8.646;2022-08-19T10:52:47;25.50;99.90
31542;DHT22;18152;49.986;8.646;2022-08-19T10:55:13;25.70;99.90
31542;DHT22;18152;49.986;8.646;2022-08-19T10:57:57;26.20;99.90
31542;DHT22;18152;49.986;8.646;2022-08-19T11:00:24;25.80;99.00
31542;DHT22;18152;49.986;8.646;2022-08-19T11:02:51;25.60;99.90
31542;DHT22;18152;49.986;8.646;2022-08-19T11:05:17;25.30;99.90
31542;DHT22;18152;49.986;8.646;2022-08-19T11:07:43;24.70;99.90
31542;DHT22;18152;49.986;8.646;2022-08-19T11:10:11;24.40;99.90
31542;DHT22;18152;49.986;8.646;2022-08-19T11:12:39;24.00;99.90
31542;DHT22;18152;49.986;8.646;2022-08-19T11:15:09;23.90;99.90
31542;DHT22;18152;49.986;8.646;2022-08-19T11:17:37;23.90;99.90
31542;DHT22;18152;49.986;8.646;2022-08-19T11:20:06;24.40;99.90
31542;DHT22;18152;49.986;8.646;2022-08-19T11:22:32;24.90;99.90
31542;DHT22;18152;49.986;8.646;2022-08-19T11:24:58;25.60;99.90
31542;DHT22;18152;49.986;8.646;2022-08-19T11:27:23;26.00;99.90
31542;DHT22;18152;49.986;8.646;2022-08-19T11:29:49;26.60;99.90
31542;DHT22;18152;49.986;8.646;2022-08-19T11:32:15;26.40;99.80
31542;DHT22;18152;49.986;8.646;2022-08-19T11:34:41;26.00;99.90
31542;DHT22;18152;49.986;8.646;2022-08-19T11:37:07;26.00;99.90
31542;DHT22;18152;49.986;8.646;2022-08-19T11:39:35;26.80;99.90
31542;DHT22;18152;49.986;8.646;2022-08-19T11:42:03;26.90;98.30
31542;DHT22;18152;49.986;8.646;2022-08-19T11:44:49;26.60;99.90
31542;DHT22;18152;49.986;8.646;2022-08-19T11:47:15;26.10;99.90
31542;DHT22;18152;49.986;8.646;2022-08-19T11:49:40;26.00;99.90
31542;DHT22;18152;49.986;8.646;2022-08-19T11:52:07;26.40;99.90
31542;DHT22;18152;49.986;8.646;2022-08-19T11:54:33;26.40;98.60
31542;DHT22;18152;49.986;8.646;2022-08-19T11:56:58;26.60;96.70
31542;DHT22;18152;49.986;8.646;2022-08-19T11:59:26;26.10;98.90
31542;DHT22;18152;49.986;8.646;2022-08-19T12:01:52;25.70;99.90
31542;DHT22;18152;49.986;8.646;2022-08-19T12:04:18;25.10;99.90
31542;DHT22;18152;49.986;8.646;2022-08-19T12:06:43;25.30;99.90
31542;DHT22;18152;49.986;8.646;2022-08-19T12:09:10;25.80;99.90
31542;DHT22;18152;49.986;8.646;2022-08-19T12:11:37;25.80;99.90
31542;DHT22;18152;49.986;8.646;2022-08-19T12:14:04;25.50;99.90
31542;DHT22;18152;49.986;8.646;2022-08-19T12:16:30;25.10;99.90
31542;DHT22;18152;49.986;8.646;2022-08-19T12:18:57;24.80;99.90
31542;DHT22;18152;49.986;8.646;2022-08-19T12:21:26;25.00;99.90
31542;DHT22;18152;49.986;8.646;2022-08-19T12:23:55;25.40;99.90
31542;DHT22;18152;49.986;8.646;2022-08-19T12:26:21;25.10;99.80
31542;DHT22;18152;49.986;8.646;2022-08-19T12:28:47;25.40;99.90
31542;DHT22;18152;49.986;8.646;2022-08-19T12:31:13;25.40;96.00
31542;DHT22;18152;49.986;8.646;2022-08-19T12:33:40;25.90;99.90
31542;DHT22;18152;49.986;8.646;2022-08-19T12:36:10;26.30;99.90
31542;DHT22;18152;49.986;8.646;2022-08-19T12:38:36;26.20;95.50
31542;DHT22;18152;49.986;8.646;2022-08-19T12:41:03;26.30;99.90
31542;DHT22;18152;49.986;8.646;2022-08-19T12:43:31;26.70;97.30
31542;DHT22;18152;49.986;8.646;2022-08-19T12:45:57;27.00;96.50
31542;DHT22;18152;49.986;8.646;2022-08-19T12:48:23;27.20;93.10
31542;DHT22;18152;49.986;8.646;2022-08-19T12:50:48;27.30;93.40
31542;DHT22;18152;49.986;8.646;2022-08-19T12:53:14;27.40;93.60
31542;DHT22;18152;49.986;8.646;2022-08-19T12:55:41;27.50;94.30
31542;DHT22;18152;49.986;8.646;2022-08-19T12:58:08;27.50;96.00
31542;DHT22;18152;49.986;8.646;2022-08-19T13:00:34;27.40;90.70
31542;DHT22;18152;49.986;8.646;2022-08-19T13:03:00;27.60;96.40
31542;DHT22;18152;49.986;8.646;2022-08-19T13:05:35;27.50;93.30
31542;DHT22;18152;49.986;8.646;2022-08-19T13:08:01;27.50;89.30
31542;DHT22;18152;49.986;8.646;2022-08-19T13:10:32;27.70;90.00
31542;DHT22;18152;49.986;8.646;2022-08-19T13:13:00;27.80;93.60
31542;DHT22;18152;49.986;8.646;2022-08-19T13:15:27;27.80;91.60
31542;DHT22;18152;49.986;8.646;2022-08-19T13:17:57;27.90;90.10
31542;DHT22;18152;49.986;8.646;2022-08-19T13:20:23;27.70;89.10
31542;DHT22;18152;49.986;8.646;2022-08-19T13:22:49;27.80;87.10
31542;DHT22;18152;49.986;8.646;2022-08-19T13:25:16;27.70;83.50
31542;DHT22;18152;49.986;8.646;2022-08-19T13:27:43;27.60;84.20
31542;DHT22;18152;49.986;8.646;2022-08-19T13:30:11;27.60;89.60
31542;DHT22;18152;49.986;8.646;2022-08-19T13:32:55;27.60;84.50
31542;DHT22;18152;49.986;8.646;2022-08-19T13:35:45;27.60;86.10
31542;DHT22;18152;49.986;8.646;2022-08-19T13:38:12;27.50;88.10
31542;DHT22;18152;49.986;8.646;2022-08-19T13:40:39;27.60;85.90
31542;DHT22;18152;49.986;8.646;2022-08-19T13:43:05;27.10;92.20
31542;DHT22;18152;49.986;8.646;2022-08-19T13:45:32;27.10;92.10
31542;DHT22;18152;49.986;8.646;2022-08-19T13:47:59;27.20;88.80
31542;DHT22;18152;49.986;8.646;2022-08-19T13:50:27;27.50;91.50
31542;DHT22;18152;49.986;8.646;2022-08-19T13:52:55;27.60;86.60
31542;DHT22;18152;49.986;8.646;2022-08-19T13:55:22;27.00;89.30
31542;DHT22;18152;49.986;8.646;2022-08-19T13:57:55;26.60;88.00
31542;DHT22;18152;49.986;8.646;2022-08-19T14:00:22;26.10;85.40
31542;DHT22;18152;49.986;8.646;2022-08-19T14:02:51;25.80;90.70
31542;DHT22;18152;49.986;8.646;2022-08-19T14:05:18;26.00;85.40
31542;DHT22;18152;49.986;8.646;2022-08-19T14:07:44;26.40;91.60
31542;DHT22;18152;49.986;8.646;2022-08-19T14:10:11;26.40;84.40
31542;DHT22;18152;49.986;8.646;2022-08-19T14:12:38;26.10;89.20
31542;DHT22;18152;49.986;8.646;2022-08-19T14:15:06;26.00;85.80
31542;DHT22;18152;49.986;8.646;2022-08-19T14:17:31;26.10;90.80
31542;DHT22;18152;49.986;8.646;2022-08-19T14:19:58;26.10;91.90
31542;DHT22;18152;49.986;8.646;2022-08-19T14:22:31;26.20;90.30
31542;DHT22;18152;49.986;8.646;2022-08-19T14:24:57;26.20;84.00
31542;DHT22;18152;49.986;8.646;2022-08-19T14:27:23;26.30;83.20
31542;DHT22;18152;49.986;8.646;2022-08-19T14:29:50;26.50;91.20
31542;DHT22;18152;49.986;8.646;2022-08-19T14:32:16;26.00;88.10
31542;DHT22;18152;49.986;8.646;2022-08-19T14:34:42;25.80;89.60
31542;DHT22;18152;49.986;8.646;2022-08-19T14:37:09;26.00;90.30
31542;DHT22;18152;49.986;8.646;2022-08-19T14:39:35;25.90;89.00
31542;DHT22;18152;49.986;8.646;2022-08-19T14:42:00;26.30;85.30
31542;DHT22;18152;49.986;8.646;2022-08-19T14:44:26;26.00;83.00
31542;DHT22;18152;49.986;8.646;2022-08-19T14:46:53;25.70;86.30
31542;DHT22;18152;49.986;8.646;2022-08-19T14:49:19;25.60;85.00
31542;DHT22;18152;49.986;8.646;2022-08-19T14:51:44;25.50;83.10
31542;DHT22;18152;49.986;8.646;2022-08-19T14:54:12;25.60;89.90
31542;DHT22;18152;49.986;8.646;2022-08-19T14:56:40;26.00;80.70
31542;DHT22;18152;49.986;8.646;2022-08-19T14:59:06;25.90;87.40
31542;DHT22;18152;49.986;8.646;2022-08-19T15:01:31;25.80;86.20
31542;DHT22;18152;49.986;8.646;2022-08-19T15:03:57;25.60;90.00
31542;DHT22;18152;49.986;8.646;2022-08-19T15:06:23;25.60;89.30
31542;DHT22;18152;49.986;8.646;2022-08-19T15:08:49;25.60;89.70
31542;DHT22;18152;49.986;8.646;2022-08-19T15:11:18;25.50;82.90
31542;DHT22;18152;49.986;8.646;2022-08-19T15:13:46;25.70;85.80
31542;DHT22;18152;49.986;8.646;2022-08-19T15:16:12;25.40;89.20
31542;DHT22;18152;49.986;8.646;2022-08-19T15:18:40;25.50;84.40
31542;DHT22;18152;49.986;8.646;2022-08-19T15:21:09;25.30;88.00
31542;DHT22;18152;49.986;8.646;2022-08-19T15:23:36;25.20;84.30
31542;DHT22;18152;49.986;8.646;2022-08-19T15:26:02;25.80;80.00
31542;DHT22;18152;49.986;8.646;2022-08-19T15:28:29;25.30;87.60
31542;DHT22;18152;49.986;8.646;2022-08-19T15:30:55;25.10;86.90
31542;DHT22;18152;49.986;8.646;2022-08-19T15:33:20;25.40;85.40
31542;DHT22;18152;49.986;8.646;2022-08-19T15:35:47;25.00;83.60
31542;DHT22;18152;49.986;8.646;2022-08-19T15:38:15;24.90;84.00
31542;DHT22;18152;49.986;8.646;2022-08-19T15:40:41;25.10;87.70
31542;DHT22;18152;49.986;8.646;2022-08-19T15:43:07;24.80;80.90
31542;DHT22;18152;49.986;8.646;2022-08-19T15:45:33;25.00;86.80
31542;DHT22;18152;49.986;8.646;2022-08-19T15:48:00;25.40;84.10